sensor_id;sensor_type;location;lat;lon;timestamp;pressure;altitude;pressure_sealevel;temperature
65316;BMP280;51920;53.952;10.292;2023-08-08T00:00:05;100206.97;;;14.02
65316;BMP280;51920;53.952;10.292;2023-08-08T00:02:31;100203.75;;;14.07
65316;BMP280;51920;53.952;10.292;2023-08-08T00:04:58;100209.56;;;14.09
65316;BMP280;51920;53.952;10.292;2023-08-08T00:07:25;100207.91;;;13.91
65316;BMP280;51920;53.952;10.292;2023-08-08T00:09:51;100204.97;;;14.06
65316;BMP280;51920;53.952;10.292;2023-08-08T00:12:18;100206.50;;;14.07
65316;BMP280;51920;53.952;10.292;2023-08-08T00:14:44;100213.66;;;13.97
65316;BMP280;51920;53.952;10.292;2023-08-08T00:17:11;100203.53;;;13.98
65316;BMP280;51920;53.952;10.292;2023-08-08T00:19:38;100207.44;;;13.96
65316;BMP280;51920;53.952;10.292;2023-08-08T00:22:04;100209.94;;;13.87
65316;BMP280;51920;53.952;10.292;2023-08-08T00:24:31;100204.19;;;13.82
65316;BMP280;51920;53.952;10.292;2023-08-08T00:26:58;100200.34;;;13.79
65316;BMP280;51920;53.952;10.292;2023-08-08T00:29:25;100199.19;;;13.80
65316;BMP280;51920;53.952;10.292;2023-08-08T00:31:51;100202.31;;;13.79
65316;BMP280;51920;53.952;10.292;2023-08-08T00:34:18;100212.31;;;13.85
65316;BMP280;51920;53.952;10.292;2023-08-08T00:36:45;100195.25;;;13.81
65316;BMP280;51920;53.952;10.292;2023-08-08T00:39:11;100186.03;;;13.75
65316;BMP280;51920;53.952;10.292;2023-08-08T00:41:38;100202.34;;;13.75
65316;BMP280;51920;53.952;10.292;2023-08-08T00:44:05;100206.31;;;13.70
65316;BMP280;51920;53.952;10.292;2023-08-08T00:46:31;100193.91;;;13.69
65316;BMP280;51920;53.952;10.292;2023-08-08T00:48:58;100207.19;;;13.64
65316;BMP280;51920;53.952;10.292;2023-08-08T00:51:25;100213.03;;;13.66
65316;BMP280;51920;53.952;10.292;2023-08-08T00:53:54;100206.94;;;13.54
65316;BMP280;51920;53.952;10.292;2023-08-08T00:56:20;100208.16;;;13.53
65316;BMP280;51920;53.952;10.292;2023-08-08T00:58:48;100203.16;;;13.48
65316;BMP280;51920;53.952;10.292;2023-08-08T01:01:17;100212.84;;;13.49
65316;BMP280;51920;53.952;10.292;2023-08-08T01:03:44;100205.88;;;13.48
65316;BMP280;51920;53.952;10.292;2023-08-08T01:09:42;100200.59;;;13.38
65316;BMP280;51920;53.952;10.292;2023-08-08T01:12:11;100206.09;;;13.34
65316;BMP280;51920;53.952;10.292;2023-08-08T01:14:40;100204.78;;;13.42
65316;BMP280;51920;53.952;10.292;2023-08-08T01:17:10;100200.09;;;13.46
65316;BMP280;51920;53.952;10.292;2023-08-08T01:19:38;100200.50;;;13.45
65316;BMP280;51920;53.952;10.292;2023-08-08T01:22:09;100196.03;;;13.31
65316;BMP280;51920;53.952;10.292;2023-08-08T01:24:35;100198.03;;;13.27
65316;BMP280;51920;53.952;10.292;2023-08-08T01:27:04;100199.81;;;13.37
65316;BMP280;51920;53.952;10.292;2023-08-08T01:29:31;100199.56;;;13.28
65316;BMP280;51920;53.952;10.292;2023-08-08T01:31:58;100193.16;;;13.15
65316;BMP280;51920;53.952;10.292;2023-08-08T01:34:25;100200.97;;;13.13
65316;BMP280;51920;53.952;10.292;2023-08-08T01:36:58;100200.09;;;13.16
65316;BMP280;51920;53.952;10.292;2023-08-08T01:39:27;100198.00;;;13.00
65316;BMP280;51920;53.952;10.292;2023-08-08T01:41:56;100202.59;;;13.06
65316;BMP280;51920;53.952;10.292;2023-08-08T01:44:24;100194.91;;;12.98
65316;BMP280;51920;53.952;10.292;2023-08-08T01:46:54;100193.38;;;12.97
65316;BMP280;51920;53.952;10.292;2023-08-08T01:49:23;100181.72;;;12.96
65316;BMP280;51920;53.952;10.292;2023-08-08T01:51:50;100183.19;;;13.04
65316;BMP280;51920;53.952;10.292;2023-08-08T01:54:19;100180.00;;;13.09
65316;BMP280;51920;53.952;10.292;2023-08-08T01:56:46;100180.09;;;13.02
65316;BMP280;51920;53.952;10.292;2023-08-08T01:59:12;100185.09;;;13.07
65316;BMP280;51920;53.952;10.292;2023-08-08T02:01:41;100170.66;;;13.10
65316;BMP280;51920;53.952;10.292;2023-08-08T02:04:07;100176.88;;;13.38
65316;BMP280;51920;53.952;10.292;2023-08-08T02:06:34;100170.16;;;13.19
65316;BMP280;51920;53.952;10.292;2023-08-08T02:09:00;100160.72;;;13.27
65316;BMP280;51920;53.952;10.292;2023-08-08T02:11:27;100151.81;;;13.27
65316;BMP280;51920;53.952;10.292;2023-08-08T02:13:53;100151.91;;;13.20
65316;BMP280;51920;53.952;10.292;2023-08-08T02:16:20;100151.91;;;13.20
65316;BMP280;51920;53.952;10.292;2023-08-08T02:18:47;100155.78;;;13.19
65316;BMP280;51920;53.952;10.292;2023-08-08T02:21:13;100152.63;;;13.24
65316;BMP280;51920;53.952;10.292;2023-08-08T02:23:40;100153.75;;;13.26
65316;BMP280;51920;53.952;10.292;2023-08-08T02:26:07;100161.22;;;13.19
65316;BMP280;51920;53.952;10.292;2023-08-08T02:28:34;100156.91;;;13.21
65316;BMP280;51920;53.952;10.292;2023-08-08T02:31:00;100159.66;;;13.21
65316;BMP280;51920;53.952;10.292;2023-08-08T02:33:27;100154.53;;;13.27
65316;BMP280;51920;53.952;10.292;2023-08-08T02:35:57;100166.88;;;13.31
65316;BMP280;51920;53.952;10.292;2023-08-08T02:38:23;100158.81;;;13.24
65316;BMP280;51920;53.952;10.292;2023-08-08T02:40:50;100161.03;;;13.33
65316;BMP280;51920;53.952;10.292;2023-08-08T02:43:16;100147.56;;;13.22
65316;BMP280;51920;53.952;10.292;2023-08-08T02:45:43;100161.59;;;13.21
65316;BMP280;51920;53.952;10.292;2023-08-08T02:48:10;100158.88;;;13.21
65316;BMP280;51920;53.952;10.292;2023-08-08T02:50:37;100157.34;;;13.20
65316;BMP280;51920;53.952;10.292;2023-08-08T02:53:03;100159.03;;;13.10
65316;BMP280;51920;53.952;10.292;2023-08-08T02:55:36;100156.59;;;13.16
65316;BMP280;51920;53.952;10.292;2023-08-08T02:58:03;100154.44;;;13.03
65316;BMP280;51920;53.952;10.292;2023-08-08T03:00:30;100156.06;;;13.01
65316;BMP280;51920;53.952;10.292;2023-08-08T03:02:58;100155.59;;;13.06
65316;BMP280;51920;53.952;10.292;2023-08-08T03:05:24;100145.38;;;13.14
65316;BMP280;51920;53.952;10.292;2023-08-08T03:07:52;100136.56;;;13.06
65316;BMP280;51920;53.952;10.292;2023-08-08T03:10:19;100130.34;;;13.05
65316;BMP280;51920;53.952;10.292;2023-08-08T03:12:45;100130.34;;;13.05
65316;BMP280;51920;53.952;10.292;2023-08-08T03:15:13;100128.81;;;13.04
65316;BMP280;51920;53.952;10.292;2023-08-08T03:17:41;100123.84;;;12.99
65316;BMP280;51920;53.952;10.292;2023-08-08T03:20:09;100125.63;;;13.09
65316;BMP280;51920;53.952;10.292;2023-08-08T03:22:37;100129.56;;;13.05
65316;BMP280;51920;53.952;10.292;2023-08-08T03:25:05;100116.47;;;12.96
65316;BMP280;51920;53.952;10.292;2023-08-08T03:27:32;100118.88;;;12.94
65316;BMP280;51920;53.952;10.292;2023-08-08T03:29:58;100118.00;;;13.01
65316;BMP280;51920;53.952;10.292;2023-08-08T03:32:27;100119.41;;;13.09
65316;BMP280;51920;53.952;10.292;2023-08-08T03:34:54;100122.91;;;13.09
65316;BMP280;51920;53.952;10.292;2023-08-08T03:37:21;100117.84;;;13.12
65316;BMP280;51920;53.952;10.292;2023-08-08T03:39:48;100115.13;;;13.12
65316;BMP280;51920;53.952;10.292;2023-08-08T03:42:15;100121.72;;;13.10
65316;BMP280;51920;53.952;10.292;2023-08-08T03:44:41;100123.47;;;13.24
65316;BMP280;51920;53.952;10.292;2023-08-08T03:47:08;100129.19;;;13.30
65316;BMP280;51920;53.952;10.292;2023-08-08T03:49:39;100126.84;;;13.32
65316;BMP280;51920;53.952;10.292;2023-08-08T03:52:06;100123.75;;;13.30
65316;BMP280;51920;53.952;10.292;2023-08-08T03:54:32;100116.06;;;13.25
65316;BMP280;51920;53.952;10.292;2023-08-08T03:56:59;100122.22;;;13.29
65316;BMP280;51920;53.952;10.292;2023-08-08T03:59:27;100126.84;;;13.32
65316;BMP280;51920;53.952;10.292;2023-08-08T04:01:54;100131.22;;;13.26
65316;BMP280;51920;53.952;10.292;2023-08-08T04:04:23;100137.72;;;13.32
65316;BMP280;51920;53.952;10.292;2023-08-08T04:06:50;100130.72;;;13.35
65316;BMP280;51920;53.952;10.292;2023-08-08T04:09:16;100125.09;;;13.22
65316;BMP280;51920;53.952;10.292;2023-08-08T04:11:43;100129.97;;;13.30
65316;BMP280;51920;53.952;10.292;2023-08-08T04:14:10;100136.19;;;13.31
65316;BMP280;51920;53.952;10.292;2023-08-08T04:16:38;100137.78;;;13.28
65316;BMP280;51920;53.952;10.292;2023-08-08T04:19:05;100133.09;;;13.29
65316;BMP280;51920;53.952;10.292;2023-08-08T04:21:32;100143.97;;;13.29
65316;BMP280;51920;53.952;10.292;2023-08-08T04:23:59;100139.19;;;13.37
65316;BMP280;51920;53.952;10.292;2023-08-08T04:26:26;100126.94;;;13.25
65316;BMP280;51920;53.952;10.292;2023-08-08T04:28:52;100128.84;;;13.28
65316;BMP280;51920;53.952;10.292;2023-08-08T04:31:19;100120.69;;;13.28
65316;BMP280;51920;53.952;10.292;2023-08-08T04:33:46;100116.91;;;13.22
65316;BMP280;51920;53.952;10.292;2023-08-08T04:36:13;100109.47;;;13.26
65316;BMP280;51920;53.952;10.292;2023-08-08T04:38:39;100114.13;;;13.25
65316;BMP280;51920;53.952;10.292;2023-08-08T04:41:06;100125.09;;;13.22
65316;BMP280;51920;53.952;10.292;2023-08-08T04:43:32;100116.50;;;13.23
65316;BMP280;51920;53.952;10.292;2023-08-08T04:45:59;100112.22;;;13.22
65316;BMP280;51920;53.952;10.292;2023-08-08T04:48:26;100108.59;;;13.32
65316;BMP280;51920;53.952;10.292;2023-08-08T04:50:52;100115.47;;;13.37
65316;BMP280;51920;53.952;10.292;2023-08-08T04:53:19;100111.19;;;13.40
65316;BMP280;51920;53.952;10.292;2023-08-08T04:55:45;100106.16;;;13.38
65316;BMP280;51920;53.952;10.292;2023-08-08T04:58:12;100119.28;;;13.43
65316;BMP280;51920;53.952;10.292;2023-08-08T05:00:38;100118.09;;;13.44
65316;BMP280;51920;53.952;10.292;2023-08-08T05:03:05;100124.06;;;13.36
65316;BMP280;51920;53.952;10.292;2023-08-08T05:05:32;100127.91;;;13.38
65316;BMP280;51920;53.952;10.292;2023-08-08T05:07:59;100123.53;;;13.44
65316;BMP280;51920;53.952;10.292;2023-08-08T05:10:26;100132.78;;;13.50
65316;BMP280;51920;53.952;10.292;2023-08-08T05:12:52;100127.81;;;13.45
65316;BMP280;51920;53.952;10.292;2023-08-08T05:15:19;100126.56;;;13.50
65316;BMP280;51920;53.952;10.292;2023-08-08T05:17:45;100106.91;;;13.39
65316;BMP280;51920;53.952;10.292;2023-08-08T05:20:12;100104.50;;;13.44
65316;BMP280;51920;53.952;10.292;2023-08-08T05:22:39;100123.59;;;13.41
65316;BMP280;51920;53.952;10.292;2023-08-08T05:25:06;100122.72;;;13.47
65316;BMP280;51920;53.952;10.292;2023-08-08T05:27:33;100118.09;;;13.44
65316;BMP280;51920;53.952;10.292;2023-08-08T05:30:00;100122.94;;;13.57
65316;BMP280;51920;53.952;10.292;2023-08-08T05:32:26;100134.28;;;13.51
65316;BMP280;51920;53.952;10.292;2023-08-08T05:34:53;100130.50;;;13.69
65316;BMP280;51920;53.952;10.292;2023-08-08T05:37:19;100144.97;;;13.66
65316;BMP280;51920;53.952;10.292;2023-08-08T05:39:46;100120.81;;;13.68
65316;BMP280;51920;53.952;10.292;2023-08-08T05:42:12;100123.63;;;13.64
65316;BMP280;51920;53.952;10.292;2023-08-08T05:44:39;100123.22;;;13.66
65316;BMP280;51920;53.952;10.292;2023-08-08T05:47:08;100111.69;;;13.54
65316;BMP280;51920;53.952;10.292;2023-08-08T05:49:34;100134.22;;;13.59
65316;BMP280;51920;53.952;10.292;2023-08-08T05:52:01;100126.38;;;13.84
65316;BMP280;51920;53.952;10.292;2023-08-08T05:54:28;100116.13;;;13.68
65316;BMP280;51920;53.952;10.292;2023-08-08T05:56:54;100117.66;;;13.73
65316;BMP280;51920;53.952;10.292;2023-08-08T05:59:21;100117.09;;;13.82
65316;BMP280;51920;53.952;10.292;2023-08-08T06:01:48;100127.66;;;13.76
65316;BMP280;51920;53.952;10.292;2023-08-08T06:04:14;100124.47;;;13.81
65316;BMP280;51920;53.952;10.292;2023-08-08T06:06:41;100111.91;;;13.87
65316;BMP280;51920;53.952;10.292;2023-08-08T06:09:07;100122.19;;;14.39
65316;BMP280;51920;53.952;10.292;2023-08-08T06:11:35;100126.25;;;14.51
65316;BMP280;51920;53.952;10.292;2023-08-08T06:14:01;100122.75;;;14.51
65316;BMP280;51920;53.952;10.292;2023-08-08T06:16:29;100116.22;;;14.65
65316;BMP280;51920;53.952;10.292;2023-08-08T06:18:55;100111.16;;;14.99
65316;BMP280;51920;53.952;10.292;2023-08-08T06:21:22;100108.53;;;15.12
65316;BMP280;51920;53.952;10.292;2023-08-08T06:23:49;100105.78;;;15.29
65316;BMP280;51920;53.952;10.292;2023-08-08T06:26:16;100112.84;;;15.88
65316;BMP280;51920;53.952;10.292;2023-08-08T06:28:43;100115.97;;;15.74
65316;BMP280;51920;53.952;10.292;2023-08-08T06:31:09;100123.53;;;15.37
65316;BMP280;51920;53.952;10.292;2023-08-08T06:33:36;100114.78;;;15.13
65316;BMP280;51920;53.952;10.292;2023-08-08T06:36:02;100129.16;;;14.97
65316;BMP280;51920;53.952;10.292;2023-08-08T06:38:29;100128.94;;;14.71
65316;BMP280;51920;53.952;10.292;2023-08-08T06:41:03;100134.28;;;14.58
65316;BMP280;51920;53.952;10.292;2023-08-08T06:43:30;100135.81;;;14.39
65316;BMP280;51920;53.952;10.292;2023-08-08T06:45:57;100121.41;;;14.23
65316;BMP280;51920;53.952;10.292;2023-08-08T06:48:24;100122.69;;;14.34
65316;BMP280;51920;53.952;10.292;2023-08-08T06:50:50;100130.19;;;14.30
65316;BMP280;51920;53.952;10.292;2023-08-08T06:53:18;100118.25;;;14.24
65316;BMP280;51920;53.952;10.292;2023-08-08T06:55:44;100114.56;;;14.31
65316;BMP280;51920;53.952;10.292;2023-08-08T06:58:11;100119.38;;;14.43
65316;BMP280;51920;53.952;10.292;2023-08-08T07:00:37;100121.81;;;14.77
65316;BMP280;51920;53.952;10.292;2023-08-08T07:03:04;100115.59;;;15.10
65316;BMP280;51920;53.952;10.292;2023-08-08T07:05:31;100113.06;;;15.19
65316;BMP280;51920;53.952;10.292;2023-08-08T07:07:58;100109.16;;;15.20
65316;BMP280;51920;53.952;10.292;2023-08-08T07:10:24;100123.03;;;15.25
65316;BMP280;51920;53.952;10.292;2023-08-08T07:12:51;100109.56;;;15.18
65316;BMP280;51920;53.952;10.292;2023-08-08T07:15:19;100111.69;;;15.11
65316;BMP280;51920;53.952;10.292;2023-08-08T07:17:46;100102.66;;;14.97
65316;BMP280;51920;53.952;10.292;2023-08-08T07:20:12;100092.69;;;14.91
65316;BMP280;51920;53.952;10.292;2023-08-08T07:22:40;100079.88;;;14.88
65316;BMP280;51920;53.952;10.292;2023-08-08T07:25:07;100087.56;;;14.93
65316;BMP280;51920;53.952;10.292;2023-08-08T07:27:34;100093.81;;;14.73
65316;BMP280;51920;53.952;10.292;2023-08-08T07:30:01;100097.53;;;14.83
65316;BMP280;51920;53.952;10.292;2023-08-08T07:32:29;100094.81;;;14.99
65316;BMP280;51920;53.952;10.292;2023-08-08T07:34:56;100093.00;;;16.00
65316;BMP280;51920;53.952;10.292;2023-08-08T07:37:23;100082.81;;;16.30
65316;BMP280;51920;53.952;10.292;2023-08-08T07:39:50;100078.22;;;16.78
65316;BMP280;51920;53.952;10.292;2023-08-08T07:42:20;100081.78;;;17.35
65316;BMP280;51920;53.952;10.292;2023-08-08T07:44:47;100081.44;;;17.68
65316;BMP280;51920;53.952;10.292;2023-08-08T07:47:13;100069.34;;;17.78
65316;BMP280;51920;53.952;10.292;2023-08-08T07:49:40;100062.00;;;17.31
65316;BMP280;51920;53.952;10.292;2023-08-08T07:52:07;100069.91;;;17.51
65316;BMP280;51920;53.952;10.292;2023-08-08T07:54:34;100073.78;;;17.63
65316;BMP280;51920;53.952;10.292;2023-08-08T07:57:01;100075.44;;;17.82
65316;BMP280;51920;53.952;10.292;2023-08-08T07:59:27;100071.03;;;17.41
65316;BMP280;51920;53.952;10.292;2023-08-08T08:01:54;100071.06;;;17.28
65316;BMP280;51920;53.952;10.292;2023-08-08T08:04:21;100072.28;;;17.27
65316;BMP280;51920;53.952;10.292;2023-08-08T08:06:47;100065.91;;;17.65
65316;BMP280;51920;53.952;10.292;2023-08-08T08:09:14;100062.53;;;18.14
65316;BMP280;51920;53.952;10.292;2023-08-08T08:11:40;100063.28;;;18.55
65316;BMP280;51920;53.952;10.292;2023-08-08T08:14:07;100068.78;;;18.73
65316;BMP280;51920;53.952;10.292;2023-08-08T08:16:34;100072.63;;;18.76
65316;BMP280;51920;53.952;10.292;2023-08-08T08:19:01;100079.25;;;18.47
65316;BMP280;51920;53.952;10.292;2023-08-08T08:21:27;100070.47;;;17.68
65316;BMP280;51920;53.952;10.292;2023-08-08T08:23:54;100089.69;;;17.99
65316;BMP280;51920;53.952;10.292;2023-08-08T08:26:21;100086.91;;;17.68
65316;BMP280;51920;53.952;10.292;2023-08-08T08:28:47;100081.03;;;16.87
65316;BMP280;51920;53.952;10.292;2023-08-08T08:31:14;100074.25;;;16.66
65316;BMP280;51920;53.952;10.292;2023-08-08T08:33:40;100073.69;;;16.33
65316;BMP280;51920;53.952;10.292;2023-08-08T08:36:07;100066.84;;;16.41
65316;BMP280;51920;53.952;10.292;2023-08-08T08:38:34;100079.84;;;16.63
65316;BMP280;51920;53.952;10.292;2023-08-08T08:41:02;100066.59;;;16.48
65316;BMP280;51920;53.952;10.292;2023-08-08T08:43:32;100063.84;;;16.10
65316;BMP280;51920;53.952;10.292;2023-08-08T08:46:00;100085.78;;;15.94
65316;BMP280;51920;53.952;10.292;2023-08-08T08:48:28;100080.13;;;15.72
65316;BMP280;51920;53.952;10.292;2023-08-08T08:50:56;100072.00;;;15.55
65316;BMP280;51920;53.952;10.292;2023-08-08T08:53:24;100072.81;;;15.68
65316;BMP280;51920;53.952;10.292;2023-08-08T08:55:51;100078.59;;;15.70
65316;BMP280;51920;53.952;10.292;2023-08-08T08:58:17;100085.34;;;15.95
65316;BMP280;51920;53.952;10.292;2023-08-08T09:00:44;100078.44;;;16.71
65316;BMP280;51920;53.952;10.292;2023-08-08T09:03:12;100089.88;;;16.91
65316;BMP280;51920;53.952;10.292;2023-08-08T09:05:40;100090.66;;;16.79
65316;BMP280;51920;53.952;10.292;2023-08-08T09:08:08;100080.41;;;16.83
65316;BMP280;51920;53.952;10.292;2023-08-08T09:10:35;100094.38;;;16.59
65316;BMP280;51920;53.952;10.292;2023-08-08T09:13:02;100097.91;;;16.47
65316;BMP280;51920;53.952;10.292;2023-08-08T09:15:32;100090.91;;;16.46
65316;BMP280;51920;53.952;10.292;2023-08-08T09:18:00;100079.72;;;16.79
65316;BMP280;51920;53.952;10.292;2023-08-08T09:20:27;100095.75;;;17.15
65316;BMP280;51920;53.952;10.292;2023-08-08T09:22:57;100093.06;;;18.03
65316;BMP280;51920;53.952;10.292;2023-08-08T09:25:24;100089.91;;;17.83
65316;BMP280;51920;53.952;10.292;2023-08-08T09:27:51;100090.47;;;17.56
65316;BMP280;51920;53.952;10.292;2023-08-08T09:30:19;100087.25;;;17.35
65316;BMP280;51920;53.952;10.292;2023-08-08T09:32:46;100099.00;;;17.58
65316;BMP280;51920;53.952;10.292;2023-08-08T09:35:14;100100.50;;;18.65
65316;BMP280;51920;53.952;10.292;2023-08-08T09:37:41;100099.19;;;19.07
65316;BMP280;51920;53.952;10.292;2023-08-08T09:40:08;100092.50;;;19.26
65316;BMP280;51920;53.952;10.292;2023-08-08T09:42:37;100093.69;;;19.16
65316;BMP280;51920;53.952;10.292;2023-08-08T09:45:06;100097.81;;;19.39
65316;BMP280;51920;53.952;10.292;2023-08-08T09:47:34;100096.28;;;19.56
65316;BMP280;51920;53.952;10.292;2023-08-08T09:50:02;100090.00;;;19.65
65316;BMP280;51920;53.952;10.292;2023-08-08T09:52:33;100099.91;;;18.79
65316;BMP280;51920;53.952;10.292;2023-08-08T09:54:59;100094.66;;;17.91
65316;BMP280;51920;53.952;10.292;2023-08-08T09:57:27;100093.00;;;17.72
65316;BMP280;51920;53.952;10.292;2023-08-08T09:59:55;100086.03;;;17.36
65316;BMP280;51920;53.952;10.292;2023-08-08T10:02:22;100081.13;;;16.96
65316;BMP280;51920;53.952;10.292;2023-08-08T10:04:48;100077.97;;;17.33
65316;BMP280;51920;53.952;10.292;2023-08-08T10:07:15;100079.19;;;17.98
65316;BMP280;51920;53.952;10.292;2023-08-08T10:09:42;100078.13;;;18.35
65316;BMP280;51920;53.952;10.292;2023-08-08T10:12:09;100094.84;;;18.69
65316;BMP280;51920;53.952;10.292;2023-08-08T10:14:37;100103.13;;;18.96
65316;BMP280;51920;53.952;10.292;2023-08-08T10:17:07;100091.84;;;18.76
65316;BMP280;51920;53.952;10.292;2023-08-08T10:19:34;100096.44;;;18.88
65316;BMP280;51920;53.952;10.292;2023-08-08T10:22:05;100091.69;;;18.89
65316;BMP280;51920;53.952;10.292;2023-08-08T10:24:35;100092.31;;;18.93
65316;BMP280;51920;53.952;10.292;2023-08-08T10:27:03;100092.16;;;19.42
65316;BMP280;51920;53.952;10.292;2023-08-08T10:29:33;100081.34;;;19.30
65316;BMP280;51920;53.952;10.292;2023-08-08T10:32:03;100077.69;;;19.05
65316;BMP280;51920;53.952;10.292;2023-08-08T10:34:44;100069.75;;;19.44
65316;BMP280;51920;53.952;10.292;2023-08-08T10:37:12;100079.22;;;19.24
65316;BMP280;51920;53.952;10.292;2023-08-08T10:39:50;100077.22;;;19.53
65316;BMP280;51920;53.952;10.292;2023-08-08T10:42:19;100064.97;;;19.72
65316;BMP280;51920;53.952;10.292;2023-08-08T10:44:53;100066.66;;;19.69
65316;BMP280;51920;53.952;10.292;2023-08-08T10:47:22;100068.06;;;20.07
65316;BMP280;51920;53.952;10.292;2023-08-08T10:50:12;100066.38;;;19.67
65316;BMP280;51920;53.952;10.292;2023-08-08T10:52:59;100071.53;;;19.65
65316;BMP280;51920;53.952;10.292;2023-08-08T10:55:34;100075.56;;;19.55
65316;BMP280;51920;53.952;10.292;2023-08-08T10:58:09;100072.59;;;19.77
65316;BMP280;51920;53.952;10.292;2023-08-08T11:00:37;100072.94;;;19.61
65316;BMP280;51920;53.952;10.292;2023-08-08T11:03:07;100075.44;;;20.01
65316;BMP280;51920;53.952;10.292;2023-08-08T11:05:36;100079.19;;;19.61
65316;BMP280;51920;53.952;10.292;2023-08-08T11:08:05;100057.81;;;19.56
65316;BMP280;51920;53.952;10.292;2023-08-08T11:10:36;100074.66;;;19.03
65316;BMP280;51920;53.952;10.292;2023-08-08T11:13:05;100078.72;;;18.71
65316;BMP280;51920;53.952;10.292;2023-08-08T11:15:33;100079.50;;;18.00
65316;BMP280;51920;53.952;10.292;2023-08-08T11:18:01;100081.66;;;17.83
65316;BMP280;51920;53.952;10.292;2023-08-08T11:20:31;100077.22;;;17.32
65316;BMP280;51920;53.952;10.292;2023-08-08T11:22:58;100093.19;;;16.99
65316;BMP280;51920;53.952;10.292;2023-08-08T11:25:26;100083.56;;;16.82
65316;BMP280;51920;53.952;10.292;2023-08-08T11:27:53;100079.59;;;16.95
65316;BMP280;51920;53.952;10.292;2023-08-08T11:30:21;100078.97;;;17.26
65316;BMP280;51920;53.952;10.292;2023-08-08T11:32:50;100092.19;;;17.62
65316;BMP280;51920;53.952;10.292;2023-08-08T11:35:22;100074.56;;;17.85
65316;BMP280;51920;53.952;10.292;2023-08-08T11:37:54;100078.44;;;18.28
65316;BMP280;51920;53.952;10.292;2023-08-08T11:40:23;100071.53;;;18.64
65316;BMP280;51920;53.952;10.292;2023-08-08T11:42:51;100061.34;;;18.83
65316;BMP280;51920;53.952;10.292;2023-08-08T11:45:18;100056.03;;;18.98
65316;BMP280;51920;53.952;10.292;2023-08-08T11:47:55;100060.00;;;18.97
65316;BMP280;51920;53.952;10.292;2023-08-08T11:50:24;100060.31;;;19.08
65316;BMP280;51920;53.952;10.292;2023-08-08T11:52:52;100064.28;;;19.25
65316;BMP280;51920;53.952;10.292;2023-08-08T11:55:20;100070.66;;;18.95
65316;BMP280;51920;53.952;10.292;2023-08-08T11:57:50;100053.28;;;18.98
65316;BMP280;51920;53.952;10.292;2023-08-08T12:00:17;100072.53;;;19.25
65316;BMP280;51920;53.952;10.292;2023-08-08T12:02:44;100072.84;;;19.09
65316;BMP280;51920;53.952;10.292;2023-08-08T12:05:13;100069.47;;;18.96
65316;BMP280;51920;53.952;10.292;2023-08-08T12:07:43;100061.22;;;18.87
65316;BMP280;51920;53.952;10.292;2023-08-08T12:10:17;100061.06;;;19.09
65316;BMP280;51920;53.952;10.292;2023-08-08T12:12:45;100067.63;;;19.20
65316;BMP280;51920;53.952;10.292;2023-08-08T12:15:12;100060.16;;;19.39
65316;BMP280;51920;53.952;10.292;2023-08-08T12:17:42;100064.59;;;19.27
65316;BMP280;51920;53.952;10.292;2023-08-08T12:20:09;100058.34;;;19.36
65316;BMP280;51920;53.952;10.292;2023-08-08T12:22:36;100076.47;;;19.34
65316;BMP280;51920;53.952;10.292;2023-08-08T12:25:04;100072.22;;;19.42
65316;BMP280;51920;53.952;10.292;2023-08-08T12:27:30;100077.22;;;19.16
65316;BMP280;51920;53.952;10.292;2023-08-08T12:29:57;100079.69;;;18.95
65316;BMP280;51920;53.952;10.292;2023-08-08T12:32:26;100076.72;;;18.71
65316;BMP280;51920;53.952;10.292;2023-08-08T12:34:57;100072.94;;;18.96
65316;BMP280;51920;53.952;10.292;2023-08-08T12:37:24;100084.25;;;19.08
65316;BMP280;51920;53.952;10.292;2023-08-08T12:39:50;100074.97;;;19.23
65316;BMP280;51920;53.952;10.292;2023-08-08T12:42:17;100068.38;;;19.30
65316;BMP280;51920;53.952;10.292;2023-08-08T12:44:44;100071.59;;;19.38
65316;BMP280;51920;53.952;10.292;2023-08-08T12:47:11;100069.63;;;19.29
65316;BMP280;51920;53.952;10.292;2023-08-08T12:49:39;100057.84;;;19.47
65316;BMP280;51920;53.952;10.292;2023-08-08T12:52:05;100059.97;;;19.52
65316;BMP280;51920;53.952;10.292;2023-08-08T12:54:32;100064.25;;;19.62
65316;BMP280;51920;53.952;10.292;2023-08-08T12:56:58;100063.78;;;19.55
65316;BMP280;51920;53.952;10.292;2023-08-08T12:59:27;100093.53;;;19.10
65316;BMP280;51920;53.952;10.292;2023-08-08T13:01:53;100098.19;;;18.23
65316;BMP280;51920;53.952;10.292;2023-08-08T13:04:20;100087.09;;;17.17
65316;BMP280;51920;53.952;10.292;2023-08-08T13:06:48;100097.84;;;16.98
65316;BMP280;51920;53.952;10.292;2023-08-08T13:09:14;100093.41;;;16.92
65316;BMP280;51920;53.952;10.292;2023-08-08T13:11:42;100089.81;;;16.56
65316;BMP280;51920;53.952;10.292;2023-08-08T13:14:08;100094.47;;;16.43
65316;BMP280;51920;53.952;10.292;2023-08-08T13:16:35;100102.56;;;16.21
65316;BMP280;51920;53.952;10.292;2023-08-08T13:19:02;100101.16;;;16.29
65316;BMP280;51920;53.952;10.292;2023-08-08T13:21:30;100107.84;;;16.41
65316;BMP280;51920;53.952;10.292;2023-08-08T13:23:57;100118.22;;;16.33
65316;BMP280;51920;53.952;10.292;2023-08-08T13:26:23;100139.66;;;16.06
65316;BMP280;51920;53.952;10.292;2023-08-08T13:28:50;100151.91;;;16.01
65316;BMP280;51920;53.952;10.292;2023-08-08T13:31:17;100148.66;;;15.61
65316;BMP280;51920;53.952;10.292;2023-08-08T13:33:43;100138.50;;;15.61
65316;BMP280;51920;53.952;10.292;2023-08-08T13:36:12;100143.44;;;15.66
65316;BMP280;51920;53.952;10.292;2023-08-08T13:38:39;100132.25;;;15.77
65316;BMP280;51920;53.952;10.292;2023-08-08T13:41:06;100144.78;;;15.91
65316;BMP280;51920;53.952;10.292;2023-08-08T13:43:32;100142.03;;;16.33
65316;BMP280;51920;53.952;10.292;2023-08-08T13:46:00;100141.22;;;16.62
65316;BMP280;51920;53.952;10.292;2023-08-08T13:48:28;100154.75;;;16.52